createdAt,value
2018-11-12T00:00:34.005Z,24.60
2018-11-12T00:03:02.792Z,26.20
2018-11-12T00:05:31.570Z,27.20
2018-11-12T00:08:00.985Z,26.40
2018-11-12T00:10:29.966Z,26.70
2018-11-12T00:12:58.869Z,28.00
2018-11-12T00:15:28.065Z,27.07
2018-11-12T00:17:56.945Z,28.03
2018-11-12T00:20:25.804Z,26.63
2018-11-12T00:22:54.857Z,26.17
2018-11-12T00:25:23.986Z,26.87
2018-11-12T00:27:52.707Z,28.17
2018-11-12T00:30:21.707Z,29.33
2018-11-12T00:32:50.895Z,29.40
2018-11-12T00:35:19.744Z,27.27
2018-11-12T00:37:50.173Z,26.73
2018-11-12T00:40:19.110Z,27.63
2018-11-12T00:42:48.222Z,25.73
2018-11-12T00:45:17.545Z,28.27
2018-11-12T00:47:46.514Z,30.27
2018-11-12T00:50:15.803Z,29.40
2018-11-12T00:52:45.044Z,29.17
2018-11-12T00:55:14.731Z,28.97
2018-11-12T00:57:43.602Z,32.53
2018-11-12T01:00:14.658Z,33.30
2018-11-12T01:02:47.544Z,33.87
2018-11-12T01:05:17.261Z,28.87
2018-11-12T01:07:46.800Z,29.27
2018-11-12T01:10:16.931Z,27.73
2018-11-12T01:12:46.122Z,26.87
2018-11-12T01:15:16.296Z,27.17
2018-11-12T01:17:45.282Z,26.97
2018-11-12T01:20:15.008Z,21.23
2018-11-12T01:22:44.302Z,21.20
2018-11-12T01:25:14.130Z,24.57
2018-11-12T01:27:43.464Z,25.43
2018-11-12T01:30:14.503Z,27.10
2018-11-12T01:32:43.753Z,23.87
2018-11-12T01:35:13.699Z,23.70
2018-11-12T01:37:42.509Z,21.67
2018-11-12T01:40:12.511Z,22.07
2018-11-12T01:42:41.887Z,24.20
2018-11-12T01:45:13.093Z,23.93
2018-11-12T01:47:42.697Z,25.73
2018-11-12T01:50:12.595Z,24.87
2018-11-12T01:52:42.567Z,27.10
2018-11-12T01:55:12.698Z,23.67
2018-11-12T01:57:41.899Z,22.60
2018-11-12T02:00:13.667Z,24.20
2018-11-12T02:02:43.350Z,23.93
2018-11-12T02:05:12.230Z,25.53
2018-11-12T02:07:41.014Z,23.97
2018-11-12T02:10:12.092Z,27.20
2018-11-12T02:12:41.418Z,24.90
2018-11-12T02:15:12.746Z,23.47
2018-11-12T02:17:41.902Z,23.70
2018-11-12T02:20:12.401Z,23.10
2018-11-12T02:22:42.112Z,24.60
2018-11-12T02:25:11.714Z,27.07
2018-11-12T02:27:40.575Z,29.70
2018-11-12T02:30:11.898Z,29.87
2018-11-12T02:32:40.766Z,30.90
2018-11-12T02:35:10.009Z,30.87
2018-11-12T02:37:39.603Z,31.27
2018-11-12T02:40:10.635Z,27.97
2018-11-12T02:42:39.798Z,29.57
2018-11-12T02:45:10.166Z,28.50
2018-11-12T02:47:39.209Z,30.33
2018-11-12T02:50:09.591Z,29.20
2018-11-12T02:52:38.644Z,32.40
2018-11-12T02:55:09.339Z,33.07
2018-11-12T02:57:38.083Z,35.33
2018-11-12T03:00:11.153Z,35.00
2018-11-12T03:02:40.505Z,32.33
2018-11-12T03:05:10.313Z,31.00
2018-11-12T03:07:39.837Z,27.97
2018-11-12T03:10:11.158Z,26.43
2018-11-12T03:12:39.802Z,27.87
2018-11-12T03:15:10.137Z,26.97
2018-11-12T03:17:39.502Z,25.80
2018-11-12T03:20:10.632Z,25.73
2018-11-12T03:22:39.953Z,25.53
2018-11-12T03:25:10.494Z,27.10
2018-11-12T03:27:39.329Z,26.90
2018-11-12T03:30:09.331Z,27.83
2018-11-12T03:32:38.172Z,28.60
2018-11-12T03:35:07.885Z,25.80
2018-11-12T03:37:36.912Z,25.40
2018-11-12T03:40:07.456Z,22.03
2018-11-12T03:42:36.241Z,23.60
2018-11-12T03:45:07.310Z,23.70
2018-11-12T03:47:36.550Z,22.07
2018-11-12T03:50:06.872Z,24.70
2018-11-12T03:52:35.585Z,24.07
2018-11-12T03:55:04.282Z,24.77
2018-11-12T03:57:33.182Z,26.50
2018-11-12T04:00:02.030Z,29.60
2018-11-12T04:02:31.163Z,27.77
2018-11-12T04:05:00.108Z,24.50
2018-11-12T04:07:29.055Z,25.70
2018-11-12T04:09:58.142Z,26.23
2018-11-12T04:12:27.270Z,26.07
2018-11-12T04:14:56.017Z,24.40
2018-11-12T04:17:24.738Z,24.30
2018-11-12T04:19:53.510Z,25.70
2018-11-12T04:22:22.800Z,25.67
2018-11-12T04:24:51.495Z,28.90
2018-11-12T04:27:20.216Z,28.17
2018-11-12T04:29:48.961Z,26.50
2018-11-12T04:32:17.959Z,25.20
2018-11-12T04:34:47.012Z,23.93
2018-11-12T04:37:15.941Z,26.00
2018-11-12T04:39:45.202Z,26.60
2018-11-12T04:42:14.334Z,25.93
2018-11-12T04:44:43.296Z,24.33
2018-11-12T04:47:12.149Z,24.23
2018-11-12T04:49:41.023Z,25.47
2018-11-12T04:52:10.221Z,24.80
2018-11-12T04:54:39.083Z,28.83
2018-11-12T04:57:07.854Z,26.27
2018-11-12T04:59:36.852Z,27.47
2018-11-12T05:02:06.240Z,27.70
2018-11-12T05:04:35.224Z,27.93
2018-11-12T05:07:04.137Z,27.13
2018-11-12T05:09:33.065Z,29.43
2018-11-12T05:12:02.305Z,31.80
2018-11-12T05:14:31.219Z,29.40
2018-11-12T05:17:00.056Z,30.87
2018-11-12T05:19:29.361Z,29.20
2018-11-12T05:21:58.651Z,29.97
2018-11-12T05:24:27.750Z,27.93
2018-11-12T05:26:56.816Z,29.17
2018-11-12T05:29:25.532Z,27.73
2018-11-12T05:31:54.214Z,30.00
2018-11-12T05:34:23.176Z,30.53
2018-11-12T05:36:52.078Z,32.90
2018-11-12T05:39:20.915Z,33.37
2018-11-12T05:41:50.311Z,33.03
2018-11-12T05:44:19.461Z,30.77
2018-11-12T05:46:48.700Z,31.13
2018-11-12T05:49:17.870Z,33.77
2018-11-12T05:51:47.159Z,33.37
2018-11-12T05:54:15.882Z,32.73
2018-11-12T05:56:44.986Z,29.93
2018-11-12T05:59:13.759Z,31.07
2018-11-12T06:01:42.474Z,38.50
2018-11-12T06:04:11.446Z,36.20
2018-11-12T06:06:40.743Z,43.83
2018-11-12T06:09:10.664Z,43.93
2018-11-12T06:11:40.071Z,46.03
2018-11-12T06:14:09.438Z,44.87
2018-11-12T06:16:38.457Z,43.40
2018-11-12T06:19:07.495Z,42.67
2018-11-12T06:21:36.548Z,47.77
2018-11-12T06:24:05.838Z,57.93
2018-11-12T06:26:34.626Z,60.93
2018-11-12T06:29:03.348Z,57.30
2018-11-12T06:31:32.149Z,58.80
2018-11-12T06:34:01.639Z,56.20
2018-11-12T06:36:30.688Z,57.33
2018-11-12T06:38:59.514Z,51.30
2018-11-12T06:41:28.238Z,51.07
2018-11-12T06:43:57.087Z,47.23
2018-11-12T06:46:26.089Z,49.20
2018-11-12T06:48:54.926Z,45.97
2018-11-12T06:51:24.033Z,45.43
2018-11-12T06:53:52.680Z,44.13
2018-11-12T06:56:21.484Z,45.27
2018-11-12T06:58:50.248Z,44.00
2018-11-12T07:01:18.907Z,43.53
2018-11-12T07:03:47.867Z,45.17
2018-11-12T07:06:17.275Z,42.33
2018-11-12T07:08:46.201Z,44.67
2018-11-12T07:11:15.786Z,42.27
2018-11-12T07:13:44.514Z,41.33
2018-11-12T07:16:13.793Z,41.13
2018-11-12T07:18:42.999Z,42.83
2018-11-12T07:21:12.314Z,42.27
2018-11-12T07:23:41.511Z,42.70
2018-11-12T07:26:10.153Z,44.20
2018-11-12T07:28:38.902Z,45.73
2018-11-12T07:31:07.715Z,46.90
2018-11-12T07:33:36.789Z,46.43
2018-11-12T07:36:05.995Z,48.93
2018-11-12T07:38:35.157Z,48.00
2018-11-12T07:41:03.898Z,51.47
2018-11-12T07:43:32.750Z,50.47
2018-11-12T07:46:01.897Z,51.87
2018-11-12T07:48:30.743Z,52.50
2018-11-12T07:51:00.006Z,50.33
2018-11-12T07:53:30.023Z,51.37
2018-11-12T07:55:58.799Z,53.50
2018-11-12T07:58:27.847Z,50.87
2018-11-12T08:00:56.739Z,52.87
2018-11-12T08:03:25.543Z,53.23
2018-11-12T08:05:54.654Z,49.90
2018-11-12T08:08:23.485Z,49.03
2018-11-12T08:10:52.602Z,48.67
2018-11-12T08:13:21.547Z,51.80
2018-11-12T08:15:50.611Z,49.03
2018-11-12T08:18:20.030Z,47.43
2018-11-12T08:20:48.881Z,46.20
2018-11-12T08:23:18.212Z,41.23
2018-11-12T08:25:47.010Z,45.03
2018-11-12T08:28:15.929Z,45.53
2018-11-12T08:30:44.944Z,45.00
2018-11-12T08:33:13.839Z,48.63
2018-11-12T08:35:42.645Z,47.80
2018-11-12T08:38:12.798Z,49.10
2018-11-12T08:40:42.459Z,46.87
2018-11-12T08:43:11.561Z,49.37
2018-11-12T08:45:40.689Z,49.27
2018-11-12T08:48:10.759Z,49.20
2018-11-12T08:50:40.047Z,45.97
2018-11-12T08:53:09.196Z,45.97
2018-11-12T08:55:38.242Z,46.67
2018-11-12T08:58:07.305Z,46.77
2018-11-12T09:00:36.168Z,45.37
2018-11-12T09:03:05.344Z,47.37
2018-11-12T09:05:34.537Z,46.77
2018-11-12T09:08:03.834Z,47.20
2018-11-12T09:10:34.332Z,48.53
2018-11-12T09:13:04.248Z,46.60
2018-11-12T09:15:36.274Z,48.77
2018-11-12T09:18:08.532Z,51.57
2018-11-12T09:20:37.521Z,51.77
2018-11-12T09:23:06.805Z,51.47
2018-11-12T09:25:35.631Z,51.90
2018-11-12T09:28:04.453Z,51.47
2018-11-12T09:30:33.259Z,50.60
2018-11-12T09:33:02.599Z,51.30
2018-11-12T09:35:32.555Z,53.63
2018-11-12T09:38:02.736Z,52.37
2018-11-12T09:40:36.988Z,53.23
2018-11-12T09:43:06.327Z,56.90
2018-11-12T09:45:35.447Z,53.17
2018-11-12T09:48:04.793Z,53.90
2018-11-12T09:50:33.883Z,57.27
2018-11-12T09:53:03.457Z,55.00
2018-11-12T09:55:33.746Z,54.40
2018-11-12T09:58:03.899Z,50.33
2018-11-12T10:00:32.765Z,49.60
2018-11-12T10:03:02.486Z,49.20
2018-11-12T10:05:32.687Z,50.40
2018-11-12T10:08:05.193Z,52.07
2018-11-12T10:10:43.005Z,54.80
2018-11-12T10:13:13.587Z,52.93
2018-11-12T10:15:43.519Z,51.37
2018-11-12T10:20:39.325Z,50.30
2018-11-12T10:23:08.635Z,52.93
2018-11-12T10:25:37.725Z,51.93
2018-11-12T10:28:07.150Z,51.00
2018-11-12T10:30:35.948Z,51.80
2018-11-12T10:33:05.244Z,48.23
2018-11-12T10:35:34.695Z,51.63
2018-11-12T10:38:03.799Z,48.27
2018-11-12T10:40:32.722Z,50.43
2018-11-12T10:43:01.800Z,51.17
2018-11-12T10:45:30.991Z,48.03
2018-11-12T10:47:59.969Z,51.17
2018-11-12T10:50:29.162Z,48.77
2018-11-12T10:52:58.453Z,48.87
2018-11-12T10:55:27.687Z,49.43
2018-11-12T10:57:56.523Z,47.00
2018-11-12T11:00:32.438Z,49.30
2018-11-12T11:03:07.556Z,46.83
2018-11-12T11:05:37.794Z,46.70
2018-11-12T11:08:06.809Z,46.50
2018-11-12T11:10:36.130Z,49.53
2018-11-12T11:13:05.638Z,49.47
2018-11-12T11:15:35.186Z,46.23
2018-11-12T11:18:04.381Z,50.13
2018-11-12T11:20:33.212Z,49.33
2018-11-12T11:23:02.490Z,45.43
2018-11-12T11:25:31.522Z,45.80
2018-11-12T11:28:00.276Z,46.03
2018-11-12T11:30:28.961Z,47.17
2018-11-12T11:32:58.358Z,44.47
2018-11-12T11:35:27.103Z,43.13
2018-11-12T11:37:56.176Z,41.60
2018-11-12T11:40:27.039Z,39.07
2018-11-12T11:42:56.250Z,38.33
2018-11-12T11:45:25.140Z,39.87
2018-11-12T11:47:54.267Z,41.13
2018-11-12T11:50:25.251Z,44.10
2018-11-12T11:52:54.691Z,43.73
2018-11-12T11:55:24.481Z,44.47
2018-11-12T11:57:53.557Z,43.50
2018-11-12T12:00:26.534Z,41.57
2018-11-12T12:02:56.366Z,45.17
2018-11-12T12:05:26.134Z,43.73
2018-11-12T12:07:55.708Z,45.10
2018-11-12T12:10:24.706Z,47.03
2018-11-12T12:12:54.047Z,45.63
2018-11-12T12:15:23.624Z,45.90
2018-11-12T12:17:52.456Z,49.07
2018-11-12T12:20:23.109Z,50.33
2018-11-12T12:22:52.277Z,50.97
2018-11-12T12:25:21.067Z,41.80
2018-11-12T12:27:50.165Z,42.73
2018-11-12T12:30:25.105Z,41.70
2018-11-12T12:32:54.943Z,42.00
2018-11-12T12:35:23.606Z,40.37
2018-11-12T12:37:52.417Z,40.23
2018-11-12T12:40:22.582Z,39.63
2018-11-12T12:42:51.467Z,38.30
2018-11-12T12:45:22.177Z,36.90
2018-11-12T12:47:51.382Z,37.83
2018-11-12T12:50:20.598Z,39.50
2018-11-12T12:52:49.871Z,37.87
2018-11-12T12:55:18.902Z,38.80
2018-11-12T12:57:48.455Z,40.33
2018-11-12T13:00:21.118Z,37.90
2018-11-12T13:02:50.985Z,34.60
2018-11-12T13:05:20.172Z,34.60
2018-11-12T13:07:49.662Z,38.00
2018-11-12T13:10:19.813Z,39.40
2018-11-12T13:12:48.809Z,37.07
2018-11-12T13:15:19.012Z,40.40
2018-11-12T13:17:48.482Z,34.17
2018-11-12T13:20:18.555Z,29.53
2018-11-12T13:22:48.221Z,29.53
2018-11-12T13:25:17.080Z,29.90
2018-11-12T13:27:46.385Z,34.20
2018-11-12T13:30:17.111Z,35.10
2018-11-12T13:32:46.843Z,31.52
2018-11-12T13:35:17.422Z,33.90
2018-11-12T13:37:46.326Z,33.03
2018-11-12T13:40:19.636Z,29.32
2018-11-12T13:42:50.194Z,27.47
2018-11-12T13:45:19.099Z,27.47
2018-11-12T13:47:48.282Z,27.70
2018-11-12T13:50:18.802Z,27.63
2018-11-12T13:52:48.831Z,26.70
2018-11-12T13:55:18.802Z,27.67
2018-11-12T13:57:47.570Z,27.73
2018-11-12T14:00:17.952Z,29.03
2018-11-12T14:02:47.632Z,29.93
2018-11-12T14:05:18.060Z,28.53
2018-11-12T14:07:47.466Z,30.43
2018-11-12T14:10:18.026Z,31.63
2018-11-12T14:12:47.489Z,32.83
2018-11-12T14:15:16.309Z,35.93
2018-11-12T14:17:45.489Z,33.60
2018-11-12T14:20:14.807Z,35.03
2018-11-12T14:22:43.675Z,31.57
2018-11-12T14:25:14.275Z,25.33
2018-11-12T14:27:43.170Z,24.23
2018-11-12T14:30:13.978Z,23.73
2018-11-12T14:32:43.098Z,22.90
2018-11-12T14:35:12.632Z,23.40
2018-11-12T14:37:42.915Z,24.57
2018-11-12T14:40:12.974Z,29.10
2018-11-12T14:42:42.181Z,25.57
2018-11-12T14:45:13.448Z,26.93
2018-11-12T14:47:42.722Z,26.80
2018-11-12T14:50:11.838Z,27.93
2018-11-12T14:52:41.304Z,28.17
2018-11-12T14:55:11.863Z,34.20
2018-11-12T14:57:40.654Z,33.80
2018-11-12T15:00:21.485Z,31.00
2018-11-12T15:02:50.718Z,30.60
2018-11-12T15:05:21.359Z,33.60
2018-11-12T15:07:50.040Z,37.90
2018-11-12T15:10:19.120Z,36.77
2018-11-12T15:12:49.337Z,34.97
2018-11-12T15:15:18.488Z,39.27
2018-11-12T15:17:47.638Z,38.73
2018-11-12T15:20:18.510Z,36.57
2018-11-12T15:22:48.025Z,37.10
2018-11-12T15:25:19.631Z,39.73
2018-11-12T15:27:48.306Z,41.67
2018-11-12T15:30:18.273Z,46.20
2018-11-12T15:32:49.050Z,45.80
2018-11-12T15:35:17.780Z,45.37
2018-11-12T15:37:47.664Z,46.13
2018-11-12T15:40:16.797Z,46.87
2018-11-12T15:42:45.697Z,51.50
2018-11-12T15:45:18.141Z,48.33
2018-11-12T15:47:47.897Z,45.90
2018-11-12T15:50:24.318Z,49.00
2018-11-12T15:52:52.991Z,47.57
2018-11-12T15:55:21.794Z,47.53
2018-11-12T15:57:50.987Z,47.53
2018-11-12T16:00:19.609Z,45.20
2018-11-12T16:02:48.544Z,47.53
2018-11-12T16:05:17.817Z,49.40
2018-11-12T16:07:46.967Z,51.50
2018-11-12T16:10:17.930Z,51.73
2018-11-12T16:12:46.982Z,55.07
2018-11-12T16:15:17.671Z,60.17
2018-11-12T16:17:46.499Z,57.70
2018-11-12T16:20:21.966Z,56.40
2018-11-12T16:22:51.403Z,52.77
2018-11-12T16:25:20.451Z,55.30
2018-11-12T16:27:49.926Z,57.13
2018-11-12T16:30:18.701Z,58.50
2018-11-12T16:32:48.534Z,59.87
2018-11-12T16:35:19.300Z,58.80
2018-11-12T16:37:49.599Z,58.07
2018-11-12T16:40:18.640Z,61.67
2018-11-12T16:42:48.746Z,58.80
2018-11-12T16:45:18.093Z,58.93
2018-11-12T16:47:47.179Z,49.47
2018-11-12T16:50:16.635Z,54.33
2018-11-12T16:52:45.719Z,58.83
2018-11-12T16:55:17.320Z,57.03
2018-11-12T16:57:46.431Z,60.37
2018-11-12T17:00:16.833Z,60.80
2018-11-12T17:02:46.248Z,55.20
2018-11-12T17:05:17.622Z,59.00
2018-11-12T17:07:47.173Z,54.37
2018-11-12T17:10:18.191Z,46.30
2018-11-12T17:12:48.383Z,48.20
2018-11-12T17:15:17.478Z,46.37
2018-11-12T17:17:46.942Z,46.83
2018-11-12T17:20:17.407Z,52.93
2018-11-12T17:22:46.239Z,55.37
2018-11-12T17:25:15.723Z,57.37
2018-11-12T17:27:45.048Z,51.43
2018-11-12T17:30:16.256Z,46.30
2018-11-12T17:32:46.656Z,49.70
2018-11-12T17:35:16.804Z,50.83
2018-11-12T17:37:45.696Z,52.17
2018-11-12T17:40:18.385Z,59.97
2018-11-12T17:42:48.191Z,63.30
2018-11-12T17:45:18.207Z,64.70
2018-11-12T17:47:48.455Z,66.17
2018-11-12T17:50:17.410Z,67.80
2018-11-12T17:52:46.192Z,68.23
2018-11-12T17:55:15.302Z,74.00
2018-11-12T17:57:43.888Z,74.00
2018-11-12T18:00:16.687Z,74.70
2018-11-12T18:02:45.771Z,74.00
2018-11-12T18:05:14.641Z,72.33
2018-11-12T18:07:44.553Z,73.50
2018-11-12T18:10:14.340Z,75.33
2018-11-12T18:12:43.271Z,73.93
2018-11-12T18:15:14.856Z,77.73
2018-11-12T18:17:44.292Z,76.03
2018-11-12T18:20:16.514Z,71.20
2018-11-12T18:22:45.219Z,70.40
2018-11-12T18:25:14.393Z,67.03
2018-11-12T18:27:43.149Z,71.13
2018-11-12T18:30:27.618Z,66.90
2018-11-12T18:32:57.490Z,71.33
2018-11-12T18:35:26.334Z,65.70
2018-11-12T18:37:55.616Z,73.50
2018-11-12T18:40:25.774Z,67.10
2018-11-12T18:42:54.861Z,65.77
2018-11-12T18:45:24.876Z,64.93
2018-11-12T18:47:53.681Z,60.57
2018-11-12T18:50:24.454Z,62.90
2018-11-12T18:52:53.196Z,62.20
2018-11-12T18:55:21.874Z,61.33
2018-11-12T18:57:51.067Z,60.53
2018-11-12T19:00:21.317Z,59.67
2018-11-12T19:02:50.689Z,59.37
2018-11-12T19:05:21.085Z,63.37
2018-11-12T19:07:51.663Z,61.63
2018-11-12T19:10:22.595Z,63.43
2018-11-12T19:12:52.145Z,64.13
2018-11-12T19:15:22.864Z,61.03
2018-11-12T19:17:56.454Z,60.00
2018-11-12T19:20:25.792Z,60.90
2018-11-12T19:22:54.805Z,61.83
2018-11-12T19:25:23.569Z,60.13
2018-11-12T19:27:52.767Z,64.33
2018-11-12T19:30:23.209Z,63.33
2018-11-12T19:32:52.107Z,63.60
2018-11-12T19:35:22.361Z,58.97
2018-11-12T19:37:51.550Z,57.27
2018-11-12T19:40:21.779Z,56.43
2018-11-12T19:42:51.750Z,58.73
2018-11-12T19:45:20.997Z,62.10
2018-11-12T19:47:50.810Z,61.00
2018-11-12T19:50:22.282Z,60.27
2018-11-12T19:52:52.656Z,63.27
2018-11-12T19:55:21.399Z,63.10
2018-11-12T19:57:50.770Z,67.03
2018-11-12T20:00:21.883Z,65.33
2018-11-12T20:02:51.793Z,67.37
2018-11-12T20:05:20.729Z,65.27
2018-11-12T20:07:49.868Z,64.33
2018-11-12T20:10:20.206Z,66.30
2018-11-12T20:12:48.951Z,64.30
2018-11-12T20:15:19.642Z,64.23
2018-11-12T20:17:49.142Z,65.93
2018-11-12T20:20:20.482Z,67.53
2018-11-12T20:22:49.997Z,62.40
2018-11-12T20:25:19.370Z,66.00
2018-11-12T20:27:48.809Z,55.03
2018-11-12T20:30:21.775Z,56.10
2018-11-12T20:32:50.935Z,56.53
2018-11-12T20:35:19.929Z,61.87
2018-11-12T20:37:49.470Z,58.50
2018-11-12T20:40:18.429Z,56.40
2018-11-12T20:42:47.935Z,56.43
2018-11-12T20:45:17.907Z,62.93
2018-11-12T20:47:48.095Z,59.50
2018-11-12T20:50:17.538Z,58.77
2018-11-12T20:52:46.567Z,57.10
2018-11-12T20:55:16.189Z,53.27
2018-11-12T20:57:45.176Z,52.10
2018-11-12T21:00:15.969Z,54.13
2018-11-12T21:02:46.525Z,53.77
2018-11-12T21:05:16.049Z,52.80
2018-11-12T21:07:44.760Z,54.60
2018-11-12T21:10:15.589Z,53.63
2018-11-12T21:12:44.696Z,54.13
2018-11-12T21:15:14.814Z,49.80
2018-11-12T21:17:44.095Z,50.57
2018-11-12T21:20:20.986Z,48.73
2018-11-12T21:22:50.161Z,49.60
2018-11-12T21:25:20.121Z,51.57
2018-11-12T21:27:48.998Z,50.37
2018-11-12T21:30:20.571Z,49.63
2018-11-12T21:32:49.948Z,51.53
2018-11-12T21:35:18.670Z,50.10
2018-11-12T21:37:48.081Z,49.80
2018-11-12T21:40:18.385Z,49.80
2018-11-12T21:42:47.203Z,49.00
2018-11-12T21:45:17.610Z,48.47
2018-11-12T21:47:46.985Z,48.50
2018-11-12T21:50:17.281Z,47.50
2018-11-12T21:52:45.884Z,47.60
2018-11-12T21:55:15.053Z,43.67
2018-11-12T21:57:44.179Z,43.67
2018-11-12T22:00:16.331Z,44.97
2018-11-12T22:02:46.512Z,44.60
2018-11-12T22:05:15.621Z,45.97
2018-11-12T22:07:44.942Z,44.67
2018-11-12T22:10:14.661Z,45.37
2018-11-12T22:12:45.894Z,45.97
2018-11-12T22:15:14.998Z,47.00
2018-11-12T22:17:43.798Z,49.80
2018-11-12T22:20:14.243Z,45.40
2018-11-12T22:22:43.434Z,45.33
2018-11-12T22:25:13.590Z,45.07
2018-11-12T22:27:43.160Z,45.33
2018-11-12T22:30:15.060Z,42.07
2018-11-12T22:32:45.230Z,44.20
2018-11-12T22:35:13.954Z,41.07
2018-11-12T22:37:43.326Z,40.00
2018-11-12T22:40:13.081Z,39.80
2018-11-12T22:42:42.784Z,40.60
2018-11-12T22:45:15.354Z,42.53
2018-11-12T22:47:44.980Z,41.93
2018-11-12T22:50:13.840Z,39.03
2018-11-12T22:52:43.580Z,39.90
2018-11-12T22:55:13.460Z,38.47
2018-11-12T22:57:42.305Z,38.50
2018-11-12T23:00:18.630Z,39.37
2018-11-12T23:02:47.862Z,37.00
2018-11-12T23:05:17.167Z,36.73
2018-11-12T23:07:47.246Z,36.37
2018-11-12T23:10:16.753Z,35.50
2018-11-12T23:12:45.745Z,38.70
2018-11-12T23:15:15.081Z,37.43
2018-11-12T23:17:44.549Z,38.43
2018-11-12T23:20:16.862Z,37.33
2018-11-12T23:22:46.367Z,36.37
2018-11-12T23:25:15.090Z,35.10
2018-11-12T23:27:44.940Z,35.33
2018-11-12T23:30:15.262Z,36.40
2018-11-12T23:32:44.313Z,33.03
2018-11-12T23:35:14.252Z,34.17
2018-11-12T23:37:43.974Z,31.97
2018-11-12T23:40:13.167Z,33.73
2018-11-12T23:42:42.152Z,31.57
2018-11-12T23:45:11.370Z,32.30
2018-11-12T23:47:40.357Z,30.43
2018-11-12T23:50:13.630Z,32.23
2018-11-12T23:52:42.647Z,31.33
2018-11-12T23:55:11.545Z,28.73
2018-11-12T23:57:40.323Z,30.00
